sensor_id;sensor_type;location;lat;lon;timestamp;pressure;altitude;pressure_sealevel;temperature
62932;BMP280;49037;41.898;25.004;2023-09-19T00:00:42;96844.25;;;14.65
62932;BMP280;49037;41.898;25.004;2023-09-19T00:03:09;96837.22;;;14.70
62932;BMP280;49037;41.898;25.004;2023-09-19T00:05:48;96841.91;;;14.69
62932;BMP280;49037;41.898;25.004;2023-09-19T00:08:22;96840.47;;;14.68
62932;BMP280;49037;41.898;25.004;2023-09-19T00:10:47;96832.06;;;14.64
62932;BMP280;49037;41.898;25.004;2023-09-19T00:13:21;96833.69;;;14.67
62932;BMP280;49037;41.898;25.004;2023-09-19T00:15:49;96837.25;;;14.62
62932;BMP280;49037;41.898;25.004;2023-09-19T00:18:21;96842.50;;;14.60
62932;BMP280;49037;41.898;25.004;2023-09-19T00:20:47;96863.38;;;14.77
62932;BMP280;49037;41.898;25.004;2023-09-19T00:23:13;96850.88;;;14.64
62932;BMP280;49037;41.898;25.004;2023-09-19T00:25:39;96858.19;;;14.71
62932;BMP280;49037;41.898;25.004;2023-09-19T00:28:05;96856.44;;;14.66
62932;BMP280;49037;41.898;25.004;2023-09-19T00:30:33;96863.69;;;14.57
62932;BMP280;49037;41.898;25.004;2023-09-19T00:32:59;96863.16;;;14.51
62932;BMP280;49037;41.898;25.004;2023-09-19T00:35:26;96854.22;;;14.41
62932;BMP280;49037;41.898;25.004;2023-09-19T00:37:55;96844.63;;;14.23
62932;BMP280;49037;41.898;25.004;2023-09-19T00:40:21;96861.28;;;14.29
62932;BMP280;49037;41.898;25.004;2023-09-19T00:42:47;96836.41;;;14.21
62932;BMP280;49037;41.898;25.004;2023-09-19T00:45:16;96852.47;;;14.36
62932;BMP280;49037;41.898;25.004;2023-09-19T00:47:45;96841.94;;;14.23
62932;BMP280;49037;41.898;25.004;2023-09-19T00:50:13;96843.75;;;14.20
62932;BMP280;49037;41.898;25.004;2023-09-19T00:52:46;96837.69;;;14.20
62932;BMP280;49037;41.898;25.004;2023-09-19T00:55:16;96843.75;;;14.20
62932;BMP280;49037;41.898;25.004;2023-09-19T00:57:44;96838.41;;;14.13
62932;BMP280;49037;41.898;25.004;2023-09-19T01:00:18;96847.69;;;14.19
62932;BMP280;49037;41.898;25.004;2023-09-19T01:02:52;96829.69;;;14.05
62932;BMP280;49037;41.898;25.004;2023-09-19T01:05:28;96834.69;;;14.01
62932;BMP280;49037;41.898;25.004;2023-09-19T01:07:55;96840.78;;;13.94
62932;BMP280;49037;41.898;25.004;2023-09-19T01:10:59;96852.63;;;13.91
62932;BMP280;49037;41.898;25.004;2023-09-19T01:16:58;96838.16;;;13.65
62932;BMP280;49037;41.898;25.004;2023-09-19T01:32:08;96833.38;;;13.48
62932;BMP280;49037;41.898;25.004;2023-09-19T01:35:00;96824.78;;;13.42
62932;BMP280;49037;41.898;25.004;2023-09-19T01:37:29;96819.25;;;13.40
62932;BMP280;49037;41.898;25.004;2023-09-19T01:40:28;96841.06;;;13.52
62932;BMP280;49037;41.898;25.004;2023-09-19T01:46:18;96820.13;;;13.50
62932;BMP280;49037;41.898;25.004;2023-09-19T01:49:16;96816.19;;;13.44
62932;BMP280;49037;41.898;25.004;2023-09-19T01:52:02;96825.84;;;13.54
62932;BMP280;49037;41.898;25.004;2023-09-19T01:54:41;96814.78;;;13.43
62932;BMP280;49037;41.898;25.004;2023-09-19T01:57:30;96808.69;;;13.42
62932;BMP280;49037;41.898;25.004;2023-09-19T02:00:07;96809.03;;;13.39
62932;BMP280;49037;41.898;25.004;2023-09-19T02:02:36;96815.63;;;13.53
62932;BMP280;49037;41.898;25.004;2023-09-19T02:05:03;96816.38;;;13.46
62932;BMP280;49037;41.898;25.004;2023-09-19T02:07:29;96804.75;;;13.36
62932;BMP280;49037;41.898;25.004;2023-09-19T02:09:57;96809.03;;;13.46
62932;BMP280;49037;41.898;25.004;2023-09-19T02:12:54;96797.25;;;13.42
62932;BMP280;49037;41.898;25.004;2023-09-19T02:15:19;96817.25;;;13.56
62932;BMP280;49037;41.898;25.004;2023-09-19T02:17:45;96810.47;;;13.55
62932;BMP280;49037;41.898;25.004;2023-09-19T02:20:12;96805.78;;;13.55
62932;BMP280;49037;41.898;25.004;2023-09-19T02:22:58;96788.78;;;13.53
62932;BMP280;49037;41.898;25.004;2023-09-19T02:25:25;96793.13;;;13.56
62932;BMP280;49037;41.898;25.004;2023-09-19T02:27:56;96786.13;;;13.53
62932;BMP280;49037;41.898;25.004;2023-09-19T02:30:24;96795.06;;;13.63
62932;BMP280;49037;41.898;25.004;2023-09-19T02:32:56;96792.38;;;13.63
62932;BMP280;49037;41.898;25.004;2023-09-19T02:35:23;96796.84;;;13.68
62932;BMP280;49037;41.898;25.004;2023-09-19T02:37:54;96785.56;;;13.62
62932;BMP280;49037;41.898;25.004;2023-09-19T02:40:23;96779.69;;;13.56
62932;BMP280;49037;41.898;25.004;2023-09-19T02:43:15;96779.88;;;13.58
62932;BMP280;49037;41.898;25.004;2023-09-19T02:45:40;96788.63;;;13.58
62932;BMP280;49037;41.898;25.004;2023-09-19T02:48:09;96782.19;;;13.54
62932;BMP280;49037;41.898;25.004;2023-09-19T02:50:57;96784.00;;;13.51
62932;BMP280;49037;41.898;25.004;2023-09-19T02:53:26;96773.59;;;13.48
62932;BMP280;49037;41.898;25.004;2023-09-19T02:55:55;96773.09;;;13.49
62932;BMP280;49037;41.898;25.004;2023-09-19T02:58:21;96773.25;;;13.51
62932;BMP280;49037;41.898;25.004;2023-09-19T03:00:50;96767.19;;;13.43
62932;BMP280;49037;41.898;25.004;2023-09-19T03:03:16;96770.22;;;13.40
62932;BMP280;49037;41.898;25.004;2023-09-19T03:05:42;96778.81;;;13.46
62932;BMP280;49037;41.898;25.004;2023-09-19T03:08:12;96794.91;;;13.46
62932;BMP280;49037;41.898;25.004;2023-09-19T03:10:40;96783.28;;;13.36
62932;BMP280;49037;41.898;25.004;2023-09-19T03:13:12;96784.72;;;13.29
62932;BMP280;49037;41.898;25.004;2023-09-19T03:16:00;96787.59;;;13.39
62932;BMP280;49037;41.898;25.004;2023-09-19T03:18:25;96772.75;;;13.23
62932;BMP280;49037;41.898;25.004;2023-09-19T03:20:54;96774.56;;;13.13
62932;BMP280;49037;41.898;25.004;2023-09-19T03:23:44;96779.22;;;13.13
62932;BMP280;49037;41.898;25.004;2023-09-19T03:26:16;96781.91;;;13.13
62932;BMP280;49037;41.898;25.004;2023-09-19T03:29:03;96774.56;;;13.06
62932;BMP280;49037;41.898;25.004;2023-09-19T03:31:36;96774.75;;;13.00
62932;BMP280;49037;41.898;25.004;2023-09-19T03:34:04;96777.22;;;12.98
62932;BMP280;49037;41.898;25.004;2023-09-19T03:36:30;96790.84;;;13.08
62932;BMP280;49037;41.898;25.004;2023-09-19T03:38:55;96775.06;;;12.97
62932;BMP280;49037;41.898;25.004;2023-09-19T03:41:23;96773.31;;;12.99
62932;BMP280;49037;41.898;25.004;2023-09-19T03:43:50;96777.97;;;12.99
62932;BMP280;49037;41.898;25.004;2023-09-19T03:46:22;96792.59;;;13.05
62932;BMP280;49037;41.898;25.004;2023-09-19T03:48:58;96793.66;;;13.02
62932;BMP280;49037;41.898;25.004;2023-09-19T03:51:24;96790.63;;;12.91
62932;BMP280;49037;41.898;25.004;2023-09-19T03:53:51;96783.31;;;12.91
62932;BMP280;49037;41.898;25.004;2023-09-19T03:56:17;96803.00;;;13.01
62932;BMP280;49037;41.898;25.004;2023-09-19T03:59:02;96809.75;;;13.02
62932;BMP280;49037;41.898;25.004;2023-09-19T04:01:28;96785.25;;;12.83
62932;BMP280;49037;41.898;25.004;2023-09-19T04:03:58;96791.16;;;12.89
62932;BMP280;49037;41.898;25.004;2023-09-19T04:07:02;96791.00;;;12.87
62932;BMP280;49037;41.898;25.004;2023-09-19T04:09:30;96796.50;;;12.89
62932;BMP280;49037;41.898;25.004;2023-09-19T04:11:56;96811.91;;;12.96
62932;BMP280;49037;41.898;25.004;2023-09-19T04:14:22;96797.78;;;12.88
62932;BMP280;49037;41.898;25.004;2023-09-19T04:16:47;96799.38;;;12.91
62932;BMP280;49037;41.898;25.004;2023-09-19T04:19:15;96797.41;;;12.84
62932;BMP280;49037;41.898;25.004;2023-09-19T04:21:42;96811.91;;;12.96
62932;BMP280;49037;41.898;25.004;2023-09-19T04:24:08;96799.75;;;12.88
62932;BMP280;49037;41.898;25.004;2023-09-19T04:26:33;96796.34;;;12.87
62932;BMP280;49037;41.898;25.004;2023-09-19T04:29:01;96802.44;;;12.88
62932;BMP280;49037;41.898;25.004;2023-09-19T04:31:31;96820.31;;;13.00
62932;BMP280;49037;41.898;25.004;2023-09-19T04:33:57;96814.06;;;13.05
62932;BMP280;49037;41.898;25.004;2023-09-19T04:36:26;96819.06;;;13.16
62932;BMP280;49037;41.898;25.004;2023-09-19T04:38:57;96810.84;;;13.22
62932;BMP280;49037;41.898;25.004;2023-09-19T04:41:25;96802.97;;;13.24
62932;BMP280;49037;41.898;25.004;2023-09-19T04:43:51;96800.13;;;13.22
62932;BMP280;49037;41.898;25.004;2023-09-19T04:46:20;96784.72;;;13.22
62932;BMP280;49037;41.898;25.004;2023-09-19T04:48:45;96808.34;;;13.31
62932;BMP280;49037;41.898;25.004;2023-09-19T04:51:10;96792.59;;;13.35
62932;BMP280;49037;41.898;25.004;2023-09-19T04:53:36;96791.53;;;13.38
62932;BMP280;49037;41.898;25.004;2023-09-19T04:56:05;96792.41;;;13.40
62932;BMP280;49037;41.898;25.004;2023-09-19T04:58:36;96797.56;;;13.53
62932;BMP280;49037;41.898;25.004;2023-09-19T05:01:01;96795.06;;;13.55
62932;BMP280;49037;41.898;25.004;2023-09-19T05:03:31;96798.28;;;13.54
62932;BMP280;49037;41.898;25.004;2023-09-19T05:05:56;96819.53;;;13.74
62932;BMP280;49037;41.898;25.004;2023-09-19T05:08:22;96812.22;;;13.74
62932;BMP280;49037;41.898;25.004;2023-09-19T05:10:49;96804.69;;;13.80
62932;BMP280;49037;41.898;25.004;2023-09-19T05:13:15;96812.69;;;13.95
62932;BMP280;49037;41.898;25.004;2023-09-19T05:15:40;96801.38;;;14.04
62932;BMP280;49037;41.898;25.004;2023-09-19T05:18:08;96799.53;;;14.21
62932;BMP280;49037;41.898;25.004;2023-09-19T05:20:34;96801.75;;;14.40
62932;BMP280;49037;41.898;25.004;2023-09-19T05:23:06;96812.91;;;14.68
62932;BMP280;49037;41.898;25.004;2023-09-19T05:25:38;96806.13;;;14.84
62932;BMP280;49037;41.898;25.004;2023-09-19T05:28:09;96813.72;;;15.02
62932;BMP280;49037;41.898;25.004;2023-09-19T05:30:36;96797.69;;;15.11
62932;BMP280;49037;41.898;25.004;2023-09-19T05:33:16;96812.69;;;15.55
62932;BMP280;49037;41.898;25.004;2023-09-19T05:36:01;96793.84;;;15.55
62932;BMP280;49037;41.898;25.004;2023-09-19T05:38:26;96800.47;;;15.71
62932;BMP280;49037;41.898;25.004;2023-09-19T05:40:54;96813.72;;;15.93
62932;BMP280;49037;41.898;25.004;2023-09-19T05:43:19;96797.00;;;15.95
62932;BMP280;49037;41.898;25.004;2023-09-19T05:45:45;96794.78;;;16.01
62932;BMP280;49037;41.898;25.004;2023-09-19T05:48:14;96803.06;;;16.12
62932;BMP280;49037;41.898;25.004;2023-09-19T05:50:42;96789.03;;;16.14
62932;BMP280;49037;41.898;25.004;2023-09-19T05:53:08;96799.31;;;16.24
62932;BMP280;49037;41.898;25.004;2023-09-19T05:55:37;96825.41;;;16.48
62932;BMP280;49037;41.898;25.004;2023-09-19T05:58:02;96811.19;;;16.48
62932;BMP280;49037;41.898;25.004;2023-09-19T06:00:29;96807.47;;;16.69
62932;BMP280;49037;41.898;25.004;2023-09-19T06:02:58;96802.69;;;16.87
62932;BMP280;49037;41.898;25.004;2023-09-19T06:05:25;96793.25;;;16.95
62932;BMP280;49037;41.898;25.004;2023-09-19T06:07:52;96801.38;;;17.14
62932;BMP280;49037;41.898;25.004;2023-09-19T06:10:18;96814.34;;;17.44
62932;BMP280;49037;41.898;25.004;2023-09-19T06:12:43;96801.41;;;17.51
62932;BMP280;49037;41.898;25.004;2023-09-19T06:15:15;96808.25;;;17.71
62932;BMP280;49037;41.898;25.004;2023-09-19T06:17:47;96800.69;;;17.88
62932;BMP280;49037;41.898;25.004;2023-09-19T06:20:13;96796.72;;;17.99
62932;BMP280;49037;41.898;25.004;2023-09-19T06:22:43;96810.03;;;18.16
62932;BMP280;49037;41.898;25.004;2023-09-19T06:25:10;96795.06;;;18.24
62932;BMP280;49037;41.898;25.004;2023-09-19T06:27:44;96803.06;;;18.62
62932;BMP280;49037;41.898;25.004;2023-09-19T06:30:11;96797.25;;;18.86
62932;BMP280;49037;41.898;25.004;2023-09-19T06:32:38;96794.72;;;18.99
62932;BMP280;49037;41.898;25.004;2023-09-19T06:35:05;96814.16;;;19.16
62932;BMP280;49037;41.898;25.004;2023-09-19T06:37:33;96818.59;;;19.33
62932;BMP280;49037;41.898;25.004;2023-09-19T06:40:00;96802.72;;;19.59
62932;BMP280;49037;41.898;25.004;2023-09-19T06:42:29;96805.25;;;19.78
62932;BMP280;49037;41.898;25.004;2023-09-19T06:48:24;96805.38;;;20.46
62932;BMP280;49037;41.898;25.004;2023-09-19T06:50:53;96800.31;;;20.63
62932;BMP280;49037;41.898;25.004;2023-09-19T06:53:30;96803.13;;;20.65
62932;BMP280;49037;41.898;25.004;2023-09-19T06:56:47;96799.13;;;20.78
62932;BMP280;49037;41.898;25.004;2023-09-19T15:52:03;96483.09;;;24.57
62932;BMP280;49037;41.898;25.004;2023-09-19T15:58:16;96512.78;;;24.30
62932;BMP280;49037;41.898;25.004;2023-09-19T16:59:08;96523.09;;;21.73
62932;BMP280;49037;41.898;25.004;2023-09-19T17:40:59;96548.59;;;21.02
62932;BMP280;49037;41.898;25.004;2023-09-19T19:57:29;96562.09;;;18.80
62932;BMP280;49037;41.898;25.004;2023-09-19T20:04:17;96569.06;;;18.83
62932;BMP280;49037;41.898;25.004;2023-09-19T20:17:13;96568.31;;;18.71
62932;BMP280;49037;41.898;25.004;2023-09-19T20:33:52;96577.66;;;18.59
62932;BMP280;49037;41.898;25.004;2023-09-19T20:36:55;96563.75;;;18.53
62932;BMP280;49037;41.898;25.004;2023-09-19T20:46:50;96577.13;;;18.51
62932;BMP280;49037;41.898;25.004;2023-09-19T20:56:44;96583.28;;;18.52
62932;BMP280;49037;41.898;25.004;2023-09-19T20:59:19;96587.16;;;18.49
62932;BMP280;49037;41.898;25.004;2023-09-19T21:02:03;96583.53;;;18.56
62932;BMP280;49037;41.898;25.004;2023-09-19T21:04:28;96583.28;;;18.52
62932;BMP280;49037;41.898;25.004;2023-09-19T21:06:57;96569.28;;;18.55
62932;BMP280;49037;41.898;25.004;2023-09-19T21:27:51;96561.69;;;18.42
62932;BMP280;49037;41.898;25.004;2023-09-19T21:37:04;96590.47;;;18.59
62932;BMP280;49037;41.898;25.004;2023-09-19T21:39:48;96571.72;;;18.51
62932;BMP280;49037;41.898;25.004;2023-09-19T21:53:07;96564.13;;;18.59
62932;BMP280;49037;41.898;25.004;2023-09-19T21:55:35;96578.22;;;18.78
62932;BMP280;49037;41.898;25.004;2023-09-19T21:58:29;96587.75;;;18.79
62932;BMP280;49037;41.898;25.004;2023-09-19T22:01:09;96596.69;;;18.82
62932;BMP280;49037;41.898;25.004;2023-09-19T22:36:44;96650.84;;;19.14
62932;BMP280;49037;41.898;25.004;2023-09-19T22:39:48;96638.97;;;18.87
62932;BMP280;49037;41.898;25.004;2023-09-19T22:42:17;96637.34;;;18.72
62932;BMP280;49037;41.898;25.004;2023-09-19T22:46:05;96648.25;;;18.63
62932;BMP280;49037;41.898;25.004;2023-09-19T22:48:40;96651.16;;;18.56
62932;BMP280;49037;41.898;25.004;2023-09-19T22:55:08;96671.09;;;18.51
62932;BMP280;49037;41.898;25.004;2023-09-19T22:57:34;96669.69;;;18.29
62932;BMP280;49037;41.898;25.004;2023-09-19T23:00:24;96664.41;;;18.31
62932;BMP280;49037;41.898;25.004;2023-09-19T23:05:46;96667.31;;;18.14
62932;BMP280;49037;41.898;25.004;2023-09-19T23:08:20;96702.34;;;18.12
62932;BMP280;49037;41.898;25.004;2023-09-19T23:13:34;96696.78;;;17.71
62932;BMP280;49037;41.898;25.004;2023-09-19T23:16:25;96708.81;;;17.79
62932;BMP280;49037;41.898;25.004;2023-09-19T23:19:01;96708.41;;;17.73
62932;BMP280;49037;41.898;25.004;2023-09-19T23:21:41;96708.59;;;17.66
62932;BMP280;49037;41.898;25.004;2023-09-19T23:24:46;96696.34;;;17.65
62932;BMP280;49037;41.898;25.004;2023-09-19T23:27:32;96710.44;;;17.45
62932;BMP280;49037;41.898;25.004;2023-09-19T23:30:03;96702.50;;;17.28
62932;BMP280;49037;41.898;25.004;2023-09-19T23:33:02;96702.66;;;17.20
62932;BMP280;49037;41.898;25.004;2023-09-19T23:35:37;96695.84;;;17.19
62932;BMP280;49037;41.898;25.004;2023-09-19T23:38:09;96700.97;;;17.34
62932;BMP280;49037;41.898;25.004;2023-09-19T23:43:59;96687.41;;;17.06
62932;BMP280;49037;41.898;25.004;2023-09-19T23:53:02;96702.66;;;17.20
